sensor_id;sensor_type;location;lat;lon;timestamp;pressure;altitude;pressure_sealevel;temperature;humidity
22181;BME280;11256;50.830;12.834;2023-11-19T00:04:59;97479.53;;;5.52;74.80
22181;BME280;11256;50.830;12.834;2023-11-19T00:10:00;97461.00;;;5.51;74.75
22181;BME280;11256;50.830;12.834;2023-11-19T00:15:10;97457.25;;;5.52;75.06
22181;BME280;11256;50.830;12.834;2023-11-19T00:20:20;97440.00;;;5.48;74.90
22181;BME280;11256;50.830;12.834;2023-11-19T00:25:22;97444.06;;;5.50;74.71
22181;BME280;11256;50.830;12.834;2023-11-19T00:30:22;97433.91;;;5.57;76.08
22181;BME280;11256;50.830;12.834;2023-11-19T00:35:22;97441.22;;;5.62;75.48
22181;BME280;11256;50.830;12.834;2023-11-19T00:40:23;97429.09;;;5.59;75.54
22181;BME280;11256;50.830;12.834;2023-11-19T00:45:23;97410.06;;;5.66;76.17
22181;BME280;11256;50.830;12.834;2023-11-19T00:50:24;97404.72;;;5.71;75.47
22181;BME280;11256;50.830;12.834;2023-11-19T00:55:24;97397.28;;;5.78;75.78
22181;BME280;11256;50.830;12.834;2023-11-19T01:00:24;97362.81;;;5.70;75.32
22181;BME280;11256;50.830;12.834;2023-11-19T01:05:27;97368.34;;;5.85;75.27
22181;BME280;11256;50.830;12.834;2023-11-19T01:10:28;97351.66;;;5.83;75.77
22181;BME280;11256;50.830;12.834;2023-11-19T01:15:29;97368.91;;;5.92;75.72
22181;BME280;11256;50.830;12.834;2023-11-19T01:20:29;97333.41;;;5.90;75.25
22181;BME280;11256;50.830;12.834;2023-11-19T01:25:29;97343.41;;;5.99;75.79
22181;BME280;11256;50.830;12.834;2023-11-19T01:30:30;97317.06;;;5.96;75.82
22181;BME280;11256;50.830;12.834;2023-11-19T01:35:30;97310.59;;;5.97;75.75
22181;BME280;11256;50.830;12.834;2023-11-19T01:40:31;97301.25;;;6.05;75.44
22181;BME280;11256;50.830;12.834;2023-11-19T01:45:33;97287.78;;;6.10;76.06
22181;BME280;11256;50.830;12.834;2023-11-19T01:50:33;97283.78;;;6.12;76.31
22181;BME280;11256;50.830;12.834;2023-11-19T01:55:34;97255.00;;;6.13;75.83
22181;BME280;11256;50.830;12.834;2023-11-19T02:00:35;97256.91;;;6.17;75.93
22181;BME280;11256;50.830;12.834;2023-11-19T02:05:37;97239.94;;;6.12;75.85
22181;BME280;11256;50.830;12.834;2023-11-19T02:10:38;97230.81;;;6.18;75.39
22181;BME280;11256;50.830;12.834;2023-11-19T02:15:40;97213.63;;;6.24;76.24
22181;BME280;11256;50.830;12.834;2023-11-19T02:20:41;97177.84;;;6.18;76.28
22181;BME280;11256;50.830;12.834;2023-11-19T02:25:42;97194.81;;;6.29;76.65
22181;BME280;11256;50.830;12.834;2023-11-19T02:30:43;97187.28;;;6.31;76.33
22181;BME280;11256;50.830;12.834;2023-11-19T02:35:43;97179.22;;;6.41;76.59
22181;BME280;11256;50.830;12.834;2023-11-19T02:40:43;97162.81;;;6.32;76.72
22181;BME280;11256;50.830;12.834;2023-11-19T02:45:44;97160.94;;;6.38;76.32
22181;BME280;11256;50.830;12.834;2023-11-19T02:50:45;97150.44;;;6.36;76.89
22181;BME280;11256;50.830;12.834;2023-11-19T02:55:47;97124.34;;;6.42;76.86
22181;BME280;11256;50.830;12.834;2023-11-19T03:00:50;97121.94;;;6.40;76.82
22181;BME280;11256;50.830;12.834;2023-11-19T03:05:57;97103.88;;;6.36;76.65
22181;BME280;11256;50.830;12.834;2023-11-19T03:10:57;97090.44;;;6.46;77.48
22181;BME280;11256;50.830;12.834;2023-11-19T03:15:59;97083.72;;;6.43;77.26
22181;BME280;11256;50.830;12.834;2023-11-19T03:20:59;97069.44;;;6.48;77.17
22181;BME280;11256;50.830;12.834;2023-11-19T03:26:00;97053.28;;;6.53;77.80
22181;BME280;11256;50.830;12.834;2023-11-19T03:31:06;97039.31;;;6.56;77.51
22181;BME280;11256;50.830;12.834;2023-11-19T03:36:10;97019.41;;;6.57;78.34
22181;BME280;11256;50.830;12.834;2023-11-19T03:41:11;97021.56;;;6.55;78.36
22181;BME280;11256;50.830;12.834;2023-11-19T03:46:19;97021.28;;;6.51;78.94
22181;BME280;11256;50.830;12.834;2023-11-19T03:51:20;97019.38;;;6.62;79.27
22181;BME280;11256;50.830;12.834;2023-11-19T03:56:20;97006.44;;;6.64;79.13
22181;BME280;11256;50.830;12.834;2023-11-19T04:01:21;97005.91;;;6.72;79.58
22181;BME280;11256;50.830;12.834;2023-11-19T04:06:21;96992.22;;;6.63;79.92
22181;BME280;11256;50.830;12.834;2023-11-19T04:11:22;97013.47;;;6.70;79.94
22181;BME280;11256;50.830;12.834;2023-11-19T04:16:26;96995.16;;;6.62;80.14
22181;BME280;11256;50.830;12.834;2023-11-19T04:21:28;97001.06;;;6.69;80.69
22181;BME280;11256;50.830;12.834;2023-11-19T04:26:29;96998.09;;;6.70;81.21
22181;BME280;11256;50.830;12.834;2023-11-19T04:31:32;96993.25;;;6.72;81.36
22181;BME280;11256;50.830;12.834;2023-11-19T04:36:33;96972.78;;;6.71;81.88
22181;BME280;11256;50.830;12.834;2023-11-19T04:41:33;96976.81;;;6.79;81.66
22181;BME280;11256;50.830;12.834;2023-11-19T04:46:34;96960.94;;;6.77;82.27
22181;BME280;11256;50.830;12.834;2023-11-19T04:51:38;96954.19;;;6.85;81.66
22181;BME280;11256;50.830;12.834;2023-11-19T04:56:38;96957.41;;;6.87;82.47
22181;BME280;11256;50.830;12.834;2023-11-19T05:01:39;96947.72;;;6.86;81.71
22181;BME280;11256;50.830;12.834;2023-11-19T05:06:40;96966.00;;;6.99;82.50
22181;BME280;11256;50.830;12.834;2023-11-19T05:11:40;96955.72;;;7.01;82.47
22181;BME280;11256;50.830;12.834;2023-11-19T05:16:40;96955.22;;;6.99;83.48
22181;BME280;11256;50.830;12.834;2023-11-19T05:21:44;96953.59;;;7.03;83.65
22181;BME280;11256;50.830;12.834;2023-11-19T05:26:44;96939.56;;;7.01;83.89
22181;BME280;11256;50.830;12.834;2023-11-19T05:31:45;96922.91;;;6.99;84.33
22181;BME280;11256;50.830;12.834;2023-11-19T05:36:45;96903.97;;;7.14;84.19
22181;BME280;11256;50.830;12.834;2023-11-19T05:41:45;96943.81;;;7.17;83.56
22181;BME280;11256;50.830;12.834;2023-11-19T05:46:46;96932.50;;;7.20;84.10
22181;BME280;11256;50.830;12.834;2023-11-19T05:51:46;96917.94;;;7.21;83.68
22181;BME280;11256;50.830;12.834;2023-11-19T05:56:50;96903.94;;;7.19;84.65
22181;BME280;11256;50.830;12.834;2023-11-19T06:01:50;96917.63;;;7.27;85.08
22181;BME280;11256;50.830;12.834;2023-11-19T06:06:50;96887.28;;;7.12;86.11
22181;BME280;11256;50.830;12.834;2023-11-19T06:11:51;96896.38;;;7.21;86.41
22181;BME280;11256;50.830;12.834;2023-11-19T06:16:51;96901.72;;;7.31;85.83
22181;BME280;11256;50.830;12.834;2023-11-19T06:21:51;96893.09;;;7.29;85.57
22181;BME280;11256;50.830;12.834;2023-11-19T06:26:52;96883.94;;;7.30;86.08
22181;BME280;11256;50.830;12.834;2023-11-19T06:31:52;96883.38;;;7.33;85.54
22181;BME280;11256;50.830;12.834;2023-11-19T06:36:53;96889.25;;;7.40;85.47
22181;BME280;11256;50.830;12.834;2023-11-19T06:41:53;96890.34;;;7.39;85.34
22181;BME280;11256;50.830;12.834;2023-11-19T06:46:53;96916.63;;;7.57;85.47
22181;BME280;11256;50.830;12.834;2023-11-19T06:51:54;96912.63;;;7.54;86.25
22181;BME280;11256;50.830;12.834;2023-11-19T06:56:54;96892.97;;;7.49;86.89
22181;BME280;11256;50.830;12.834;2023-11-19T07:01:54;96902.09;;;7.58;86.61
22181;BME280;11256;50.830;12.834;2023-11-19T07:06:54;96924.44;;;7.58;86.10
22181;BME280;11256;50.830;12.834;2023-11-19T07:11:55;96938.72;;;7.59;86.88
22181;BME280;11256;50.830;12.834;2023-11-19T07:16:56;96938.91;;;7.72;86.71
22181;BME280;11256;50.830;12.834;2023-11-19T07:21:56;96929.97;;;7.77;87.11
22181;BME280;11256;50.830;12.834;2023-11-19T07:26:56;96927.31;;;7.72;88.52
22181;BME280;11256;50.830;12.834;2023-11-19T07:31:57;96914.88;;;7.76;88.27
22181;BME280;11256;50.830;12.834;2023-11-19T07:36:57;96941.19;;;7.89;87.78
22181;BME280;11256;50.830;12.834;2023-11-19T07:41:59;96963.56;;;7.94;88.32
22181;BME280;11256;50.830;12.834;2023-11-19T07:47:00;96951.91;;;7.99;88.56
22181;BME280;11256;50.830;12.834;2023-11-19T07:52:01;96962.66;;;8.04;88.24
22181;BME280;11256;50.830;12.834;2023-11-19T07:57:03;96961.03;;;8.08;87.66
22181;BME280;11256;50.830;12.834;2023-11-19T08:02:03;96962.06;;;8.12;87.03
22181;BME280;11256;50.830;12.834;2023-11-19T08:07:05;96971.69;;;8.28;88.39
22181;BME280;11256;50.830;12.834;2023-11-19T08:12:06;96967.84;;;8.86;90.36
22181;BME280;11256;50.830;12.834;2023-11-19T08:17:07;96977.03;;;9.32;87.14
22181;BME280;11256;50.830;12.834;2023-11-19T08:22:07;96949.50;;;9.67;86.22
22181;BME280;11256;50.830;12.834;2023-11-19T08:27:09;96951.66;;;9.70;85.10
22181;BME280;11256;50.830;12.834;2023-11-19T08:32:10;96953.59;;;9.64;84.80
22181;BME280;11256;50.830;12.834;2023-11-19T08:37:11;96953.59;;;9.64;85.16
22181;BME280;11256;50.830;12.834;2023-11-19T08:42:12;96970.66;;;9.65;84.76
22181;BME280;11256;50.830;12.834;2023-11-19T08:47:13;96964.84;;;9.71;84.64
22181;BME280;11256;50.830;12.834;2023-11-19T08:52:13;96970.03;;;9.68;84.92
22181;BME280;11256;50.830;12.834;2023-11-19T08:57:14;96972.19;;;9.71;85.31
22181;BME280;11256;50.830;12.834;2023-11-19T09:02:14;96973.72;;;9.77;85.57
22181;BME280;11256;50.830;12.834;2023-11-19T09:07:16;96969.34;;;9.81;85.31
22181;BME280;11256;50.830;12.834;2023-11-19T09:12:17;96967.56;;;9.90;85.87
22181;BME280;11256;50.830;12.834;2023-11-19T09:17:17;96974.69;;;9.86;86.11
22181;BME280;11256;50.830;12.834;2023-11-19T09:22:18;96992.88;;;9.99;85.21
22181;BME280;11256;50.830;12.834;2023-11-19T09:27:18;96987.34;;;10.09;85.35
22181;BME280;11256;50.830;12.834;2023-11-19T09:32:19;96994.78;;;10.17;85.45
22181;BME280;11256;50.830;12.834;2023-11-19T09:37:19;96999.00;;;10.23;86.13
22181;BME280;11256;50.830;12.834;2023-11-19T09:42:20;96981.59;;;10.29;85.74
22181;BME280;11256;50.830;12.834;2023-11-19T09:47:21;96976.44;;;10.46;85.61
22181;BME280;11256;50.830;12.834;2023-11-19T09:52:21;96996.41;;;10.50;85.88
22181;BME280;11256;50.830;12.834;2023-11-19T09:57:22;96984.56;;;10.46;86.02
22181;BME280;11256;50.830;12.834;2023-11-19T10:02:23;97000.41;;;10.52;85.28
22181;BME280;11256;50.830;12.834;2023-11-19T10:07:25;96982.34;;;10.48;85.31
22181;BME280;11256;50.830;12.834;2023-11-19T10:12:26;96985.78;;;10.53;85.41
22181;BME280;11256;50.830;12.834;2023-11-19T10:17:33;96985.47;;;10.55;85.37
22181;BME280;11256;50.830;12.834;2023-11-19T10:22:36;96980.59;;;10.57;86.16
22181;BME280;11256;50.830;12.834;2023-11-19T10:27:37;96970.25;;;10.59;86.18
22181;BME280;11256;50.830;12.834;2023-11-19T10:32:37;96977.69;;;10.67;86.28
22181;BME280;11256;50.830;12.834;2023-11-19T10:37:37;96977.28;;;10.73;86.45
22181;BME280;11256;50.830;12.834;2023-11-19T10:42:38;96965.63;;;10.73;86.04
22181;BME280;11256;50.830;12.834;2023-11-19T10:47:39;96969.69;;;10.89;86.14
22181;BME280;11256;50.830;12.834;2023-11-19T10:52:39;96979.56;;;10.98;86.39
22181;BME280;11256;50.830;12.834;2023-11-19T10:57:43;96981.84;;;11.05;86.45
22181;BME280;11256;50.830;12.834;2023-11-19T11:02:47;96965.91;;;11.03;86.42
22181;BME280;11256;50.830;12.834;2023-11-19T11:07:52;96975.13;;;11.16;86.64
22181;BME280;11256;50.830;12.834;2023-11-19T11:12:56;96984.16;;;11.25;86.63
22181;BME280;11256;50.830;12.834;2023-11-19T11:18:02;96971.72;;;11.24;86.15
22181;BME280;11256;50.830;12.834;2023-11-19T11:28:33;96961.25;;;11.44;85.72
22181;BME280;11256;50.830;12.834;2023-11-19T11:34:05;96959.25;;;11.50;84.91
22181;BME280;11256;50.830;12.834;2023-11-19T11:39:07;96960.44;;;11.57;84.74
22181;BME280;11256;50.830;12.834;2023-11-19T11:44:08;96952.00;;;11.59;84.50
22181;BME280;11256;50.830;12.834;2023-11-19T11:49:10;96956.84;;;11.62;83.92
22181;BME280;11256;50.830;12.834;2023-11-19T11:54:31;96953.59;;;11.60;83.42
22181;BME280;11256;50.830;12.834;2023-11-19T12:04:42;96975.91;;;11.57;83.05
22181;BME280;11256;50.830;12.834;2023-11-19T12:09:47;96967.88;;;11.52;82.79
22181;BME280;11256;50.830;12.834;2023-11-19T12:15:02;96952.81;;;11.46;82.54
22181;BME280;11256;50.830;12.834;2023-11-19T12:20:06;96951.09;;;11.50;82.45
22181;BME280;11256;50.830;12.834;2023-11-19T12:25:10;96946.28;;;11.47;82.99
22181;BME280;11256;50.830;12.834;2023-11-19T12:30:12;96947.28;;;11.51;82.92
22181;BME280;11256;50.830;12.834;2023-11-19T12:35:13;96936.13;;;11.52;83.84
22181;BME280;11256;50.830;12.834;2023-11-19T12:45:15;96950.59;;;11.61;83.72
22181;BME280;11256;50.830;12.834;2023-11-19T12:50:16;96950.00;;;11.64;83.56
22181;BME280;11256;50.830;12.834;2023-11-19T12:55:27;96938.53;;;11.67;83.24
22181;BME280;11256;50.830;12.834;2023-11-19T13:00:28;96944.03;;;11.76;83.08
22181;BME280;11256;50.830;12.834;2023-11-19T13:05:30;96929.25;;;11.82;83.10
22181;BME280;11256;50.830;12.834;2023-11-19T13:10:34;96947.22;;;11.91;82.51
22181;BME280;11256;50.830;12.834;2023-11-19T13:15:50;96928.50;;;11.90;82.13
22181;BME280;11256;50.830;12.834;2023-11-19T13:20:50;96926.16;;;11.97;82.21
22181;BME280;11256;50.830;12.834;2023-11-19T13:25:50;96934.81;;;11.99;81.07
22181;BME280;11256;50.830;12.834;2023-11-19T13:30:51;96910.91;;;11.87;80.64
22181;BME280;11256;50.830;12.834;2023-11-19T13:35:51;96922.97;;;11.95;79.74
22181;BME280;11256;50.830;12.834;2023-11-19T13:40:51;96934.31;;;11.97;80.22
22181;BME280;11256;50.830;12.834;2023-11-19T13:45:52;96942.44;;;11.97;79.72
22181;BME280;11256;50.830;12.834;2023-11-19T13:50:53;96933.19;;;11.98;79.27
22181;BME280;11256;50.830;12.834;2023-11-19T13:55:54;96940.84;;;11.96;79.11
22181;BME280;11256;50.830;12.834;2023-11-19T14:00:54;96929.00;;;11.92;78.76
22181;BME280;11256;50.830;12.834;2023-11-19T14:05:54;96927.03;;;11.84;78.47
22181;BME280;11256;50.830;12.834;2023-11-19T14:10:55;96936.66;;;11.90;78.83
22181;BME280;11256;50.830;12.834;2023-11-19T14:15:56;96934.69;;;11.82;79.12
22181;BME280;11256;50.830;12.834;2023-11-19T14:20:56;96946.69;;;11.89;79.49
22181;BME280;11256;50.830;12.834;2023-11-19T14:25:56;96938.66;;;11.84;79.23
22181;BME280;11256;50.830;12.834;2023-11-19T14:30:57;96951.81;;;11.91;79.26
22181;BME280;11256;50.830;12.834;2023-11-19T14:35:57;96943.69;;;11.91;79.44
22181;BME280;11256;50.830;12.834;2023-11-19T14:40:57;96941.25;;;11.89;79.17
22181;BME280;11256;50.830;12.834;2023-11-19T14:46:00;96929.63;;;11.89;78.96
22181;BME280;11256;50.830;12.834;2023-11-19T14:51:00;96926.91;;;11.89;78.89
22181;BME280;11256;50.830;12.834;2023-11-19T14:56:03;96917.75;;;11.85;78.56
22181;BME280;11256;50.830;12.834;2023-11-19T15:01:05;96929.91;;;11.87;78.27
22181;BME280;11256;50.830;12.834;2023-11-19T15:06:06;96926.03;;;11.80;78.32
22181;BME280;11256;50.830;12.834;2023-11-19T15:11:07;96933.69;;;11.78;78.11
22181;BME280;11256;50.830;12.834;2023-11-19T15:16:09;96937.69;;;11.80;77.62
22181;BME280;11256;50.830;12.834;2023-11-19T15:21:11;96936.31;;;11.69;77.43
22181;BME280;11256;50.830;12.834;2023-11-19T15:26:13;96940.75;;;11.65;77.22
22181;BME280;11256;50.830;12.834;2023-11-19T15:31:13;96947.16;;;11.56;77.18
22181;BME280;11256;50.830;12.834;2023-11-19T15:36:16;96942.34;;;11.53;77.17
22181;BME280;11256;50.830;12.834;2023-11-19T15:41:17;96937.53;;;11.50;76.75
22181;BME280;11256;50.830;12.834;2023-11-19T15:46:18;96937.13;;;11.43;76.91
22181;BME280;11256;50.830;12.834;2023-11-19T15:51:18;96938.06;;;11.38;76.97
22181;BME280;11256;50.830;12.834;2023-11-19T15:56:18;96938.97;;;11.34;76.83
22181;BME280;11256;50.830;12.834;2023-11-19T16:01:19;96940.19;;;11.28;76.24
22181;BME280;11256;50.830;12.834;2023-11-19T16:06:19;96949.00;;;11.20;76.97
22181;BME280;11256;50.830;12.834;2023-11-19T16:11:20;96962.19;;;11.13;76.86
22181;BME280;11256;50.830;12.834;2023-11-19T16:16:21;96952.84;;;11.05;76.53
22181;BME280;11256;50.830;12.834;2023-11-19T16:21:22;96950.03;;;10.97;76.56
22181;BME280;11256;50.830;12.834;2023-11-19T16:26:24;96950.63;;;10.94;76.35
22181;BME280;11256;50.830;12.834;2023-11-19T16:31:26;96965.06;;;10.89;76.38
22181;BME280;11256;50.830;12.834;2023-11-19T16:36:26;96952.94;;;10.87;76.12
22181;BME280;11256;50.830;12.834;2023-11-19T16:41:27;96955.25;;;10.80;76.06
22181;BME280;11256;50.830;12.834;2023-11-19T16:46:27;96967.47;;;10.77;75.93
22181;BME280;11256;50.830;12.834;2023-11-19T16:51:29;96971.88;;;10.73;75.61
22181;BME280;11256;50.830;12.834;2023-11-19T16:56:29;96961.22;;;10.63;75.84
22181;BME280;11256;50.830;12.834;2023-11-19T17:01:32;96979.69;;;10.61;75.72
22181;BME280;11256;50.830;12.834;2023-11-19T17:06:34;96977.88;;;10.57;75.59
22181;BME280;11256;50.830;12.834;2023-11-19T17:11:34;96959.59;;;10.49;75.08
22181;BME280;11256;50.830;12.834;2023-11-19T17:16:36;96963.97;;;10.45;75.21
22181;BME280;11256;50.830;12.834;2023-11-19T17:21:39;96947.81;;;10.40;75.03
22181;BME280;11256;50.830;12.834;2023-11-19T17:26:39;96975.84;;;10.49;74.66
22181;BME280;11256;50.830;12.834;2023-11-19T17:31:40;96979.16;;;10.46;75.10
22181;BME280;11256;50.830;12.834;2023-11-19T17:36:41;96973.22;;;10.44;74.93
22181;BME280;11256;50.830;12.834;2023-11-19T17:41:42;96980.22;;;10.45;74.41
22181;BME280;11256;50.830;12.834;2023-11-19T17:46:43;96981.13;;;10.40;74.67
22181;BME280;11256;50.830;12.834;2023-11-19T17:51:43;96975.44;;;10.42;74.87
22181;BME280;11256;50.830;12.834;2023-11-19T17:56:44;96965.69;;;10.41;74.55
22181;BME280;11256;50.830;12.834;2023-11-19T18:01:44;96962.59;;;10.47;74.06
22181;BME280;11256;50.830;12.834;2023-11-19T18:06:45;96946.91;;;10.31;74.50
22181;BME280;11256;50.830;12.834;2023-11-19T18:11:45;96960.94;;;10.33;74.34
22181;BME280;11256;50.830;12.834;2023-11-19T18:16:46;96973.38;;;10.34;74.56
22181;BME280;11256;50.830;12.834;2023-11-19T18:21:46;96950.28;;;10.23;74.58
22181;BME280;11256;50.830;12.834;2023-11-19T18:26:47;96966.16;;;10.29;75.07
22181;BME280;11256;50.830;12.834;2023-11-19T18:31:47;96967.97;;;10.34;74.72
22181;BME280;11256;50.830;12.834;2023-11-19T18:36:47;96966.97;;;10.30;74.68
22181;BME280;11256;50.830;12.834;2023-11-19T18:41:48;96971.84;;;10.28;74.58
22181;BME280;11256;50.830;12.834;2023-11-19T18:46:48;96974.16;;;10.21;74.84
22181;BME280;11256;50.830;12.834;2023-11-19T18:51:49;96971.94;;;10.23;74.66
22181;BME280;11256;50.830;12.834;2023-11-19T18:56:49;96979.78;;;10.24;74.97
22181;BME280;11256;50.830;12.834;2023-11-19T19:01:50;96986.59;;;10.22;74.89
22181;BME280;11256;50.830;12.834;2023-11-19T19:06:50;96978.53;;;10.17;75.10
22181;BME280;11256;50.830;12.834;2023-11-19T19:11:50;96993.09;;;10.21;75.06
22181;BME280;11256;50.830;12.834;2023-11-19T19:16:51;96995.81;;;10.21;75.42
22181;BME280;11256;50.830;12.834;2023-11-19T19:21:51;96987.41;;;10.22;75.58
22181;BME280;11256;50.830;12.834;2023-11-19T19:26:52;96998.16;;;10.27;75.58
22181;BME280;11256;50.830;12.834;2023-11-19T19:31:52;96994.22;;;10.20;75.69
22181;BME280;11256;50.830;12.834;2023-11-19T19:36:52;96984.56;;;10.14;75.70
22181;BME280;11256;50.830;12.834;2023-11-19T19:41:53;96990.75;;;10.14;75.59
22181;BME280;11256;50.830;12.834;2023-11-19T19:46:53;97002.91;;;10.17;75.82
22181;BME280;11256;50.830;12.834;2023-11-19T19:51:53;97005.31;;;10.18;76.09
22181;BME280;11256;50.830;12.834;2023-11-19T19:56:54;97012.94;;;10.16;75.99
22181;BME280;11256;50.830;12.834;2023-11-19T20:01:54;97004.91;;;10.11;76.01
22181;BME280;11256;50.830;12.834;2023-11-19T20:06:55;96998.81;;;10.19;76.30
22181;BME280;11256;50.830;12.834;2023-11-19T20:11:55;96995.81;;;10.21;75.91
22181;BME280;11256;50.830;12.834;2023-11-19T20:16:55;96997.41;;;10.22;76.08
22181;BME280;11256;50.830;12.834;2023-11-19T20:21:57;96983.94;;;10.17;76.00
22181;BME280;11256;50.830;12.834;2023-11-19T20:26:59;96988.78;;;10.20;76.03
22181;BME280;11256;50.830;12.834;2023-11-19T20:32:00;96990.69;;;10.19;76.41
22181;BME280;11256;50.830;12.834;2023-11-19T20:37:00;96989.56;;;10.20;76.57
22181;BME280;11256;50.830;12.834;2023-11-19T20:42:00;96992.59;;;10.19;76.34
22181;BME280;11256;50.830;12.834;2023-11-19T20:47:02;96983.44;;;10.15;76.21
22181;BME280;11256;50.830;12.834;2023-11-19T20:52:05;96983.94;;;10.17;76.37
22181;BME280;11256;50.830;12.834;2023-11-19T20:57:06;96989.38;;;10.17;76.43
22181;BME280;11256;50.830;12.834;2023-11-19T21:02:06;96989.66;;;10.15;76.54
22181;BME280;11256;50.830;12.834;2023-11-19T21:07:06;96987.75;;;10.16;76.98
22181;BME280;11256;50.830;12.834;2023-11-19T21:12:08;96975.91;;;10.12;77.13
22181;BME280;11256;50.830;12.834;2023-11-19T21:17:08;96972.09;;;10.13;76.89
22181;BME280;11256;50.830;12.834;2023-11-19T21:22:09;96971.72;;;10.19;77.23
22181;BME280;11256;50.830;12.834;2023-11-19T21:27:10;96952.66;;;10.11;77.08
22181;BME280;11256;50.830;12.834;2023-11-19T21:32:12;96970.63;;;10.20;77.53
22181;BME280;11256;50.830;12.834;2023-11-19T21:37:12;96970.94;;;10.19;77.59
22181;BME280;11256;50.830;12.834;2023-11-19T21:42:13;96960.13;;;10.19;77.55
22181;BME280;11256;50.830;12.834;2023-11-19T21:47:13;96951.66;;;10.20;77.67
22181;BME280;11256;50.830;12.834;2023-11-19T21:52:14;96954.91;;;10.22;77.38
22181;BME280;11256;50.830;12.834;2023-11-19T21:57:15;96929.81;;;10.17;77.74
22181;BME280;11256;50.830;12.834;2023-11-19T22:02:16;96930.00;;;10.20;77.64
22181;BME280;11256;50.830;12.834;2023-11-19T22:07:16;96936.75;;;10.23;77.53
22181;BME280;11256;50.830;12.834;2023-11-19T22:12:17;96941.38;;;10.22;77.71
22181;BME280;11256;50.830;12.834;2023-11-19T22:17:18;96942.16;;;10.23;77.57
22181;BME280;11256;50.830;12.834;2023-11-19T22:22:19;96952.50;;;10.21;77.26
22181;BME280;11256;50.830;12.834;2023-11-19T22:27:19;96962.81;;;10.19;77.38
22181;BME280;11256;50.830;12.834;2023-11-19T22:32:20;96946.66;;;10.14;77.24
22181;BME280;11256;50.830;12.834;2023-11-19T22:37:20;96958.72;;;10.21;77.20
22181;BME280;11256;50.830;12.834;2023-11-19T22:42:21;96965.75;;;10.22;77.24
22181;BME280;11256;50.830;12.834;2023-11-19T22:47:21;96957.91;;;10.21;77.16
22181;BME280;11256;50.830;12.834;2023-11-19T22:52:22;96964.44;;;10.20;77.10
22181;BME280;11256;50.830;12.834;2023-11-19T22:57:22;96973.66;;;10.19;77.44
22181;BME280;11256;50.830;12.834;2023-11-19T23:02:23;96951.03;;;10.10;77.48
22181;BME280;11256;50.830;12.834;2023-11-19T23:07:23;96962.59;;;10.15;77.70
22181;BME280;11256;50.830;12.834;2023-11-19T23:12:24;96977.22;;;10.14;78.01
22181;BME280;11256;50.830;12.834;2023-11-19T23:17:24;96976.34;;;10.19;77.91
22181;BME280;11256;50.830;12.834;2023-11-19T23:22:26;96966.25;;;10.06;78.32
22181;BME280;11256;50.830;12.834;2023-11-19T23:27:28;96961.19;;;10.18;78.31
22181;BME280;11256;50.830;12.834;2023-11-19T23:32:28;96965.59;;;10.14;78.32
22181;BME280;11256;50.830;12.834;2023-11-19T23:37:29;96961.78;;;10.15;78.30
22181;BME280;11256;50.830;12.834;2023-11-19T23:42:30;96955.06;;;10.12;77.91
22181;BME280;11256;50.830;12.834;2023-11-19T23:47:30;96944.59;;;10.06;78.13
22181;BME280;11256;50.830;12.834;2023-11-19T23:52:31;96924.91;;;10.00;78.11
22181;BME280;11256;50.830;12.834;2023-11-19T23:57:31;96929.53;;;10.00;78.98
